Terminal Aerodrome Forecast
Issued by NWS

Home | Current Version | Previous Version | Text Only | Print | Product List | Glossary On
Versions: 1 2 3 4 5 6 7 8 9 10 11 12
916
FTUS45 KABQ 251739
TAFAEG
TAF
KAEG 251739Z 2518/2618 27007KT P6SM SKC
     FM252000 24015G24KT P6SM SKC
     FM260100 27009KT P6SM SCT200
     FM260600 25007KT P6SM FEW100 SCT150
     FM261700 26012G20KT P6SM SCT090 BKN150=

USA.gov is the U.S. government's official web portal to all federal, state and local government web resources and services.